Terminal Aerodrome Forecast
Issued by NWS

Home | Current Version | Previous Version | Text Only | Print | Product List | Glossary On
Versions: 1 2 3 4 5 6 7 8 9 10 11 12 13 14 15 16 17 18 19 20 21 22 23 24 25 26 27 28 29 30 31 32 33 34 35 36 37 38 39 40 41
000
FTAK31 PANC 061919 AAA
TAFACD
TAF AMD
PACD 061919Z 0619/0718 17020G28KT P6SM -RA SCT025 OVC035
      TEMPO 0619/0621 SCT015 BKN025
     FM062100 20018G28KT 6SM -RA SCT008 OVC015
     FM070400 25012G22KT 4SM -RA SCT004 OVC008
     FM071000 26012G22KT P6SM -SHRA OVC025
     FM071500 31009KT P6SM OVC050=

USA.gov is the U.S. government's official web portal to all federal, state and local government web resources and services.